Casper, WY

8:26 AM MDT on August 27, 2014 (GMT -0600)
North of Casper, WY | Change Station
CLOSE
Current Station
Personal Weather Station
Location: Bar Nunn, WY
Elevation: 5276 ft
Nearby Weather Stations

Elev 5276 ft 42.91 °N, 106.35 °W | Updated 39 seconds ago

Overcast
Overcast
57.7 °F
Feels Like 57.7 °F
N
0.0
Wind Variable Wind from NNE
Gusts 0.0 mph

Today
High -- | Low -- °F
--% Chance of Precip.
Yesterday
High -- | Low -- °F
Precip. -- in
6:24 AM 7:48 PM
Waxing Crescent, 4% visible
Pressure 30.20 in
Visibility 10.0 miles
Clouds Mostly Cloudy 1300 ft
Overcast 10000 ft
Dew Point 54 °F
Humidity 89%
Rainfall 0.00 in
Snow Depth 0 in
UV 0 out of 12
Pollen 7.90 out of 12
Air Quality Not available.
Flu Activity Not available.
METAR KCPR 271353Z COR 00000KT 10SM BKN013 OVC100 14/11 A3020

More Conditions Fewer Conditions

Pressure 30.20 in
Visibility 10.0 miles
Clouds Mostly Cloudy 1300 ft
Overcast 10000 ft
Dew Point 54 °F
Humidity 89%
Rainfall 0.00 in
Snow Depth 0 in
UV 0 out of 12
Pollen 7.90 out of 12
Air Quality Not available.
Flu Activity Not available.
METAR KCPR 271353Z COR 00000KT 10SM BKN013 OVC100 14/11 A3020

More Conditions Fewer Conditions

10-Day Weather Forecast

Almanac

Astronomy

Aug. 27, 2014 Rise Set
Actual Time 6:24 AM MDT 7:48 PM MDT
Civil Twilight 5:55 AM MDT 8:17 PM MDT
Nautical Twilight 5:19 AM MDT 8:52 PM MDT
Astronomical Twilight 4:41 AM MDT 9:30 PM MDT
Moon 8:27 AM MDT 8:37 PM MDT
Length of Visible Light 14h 22m
Length of Day
13h 23m
Tomorrow will be 2m 45s shorter.
Waxing Crescent, 4% of the Moon is Illuminated
Today
Waxing Crescent
Sep 2
First Quarter
Sep 8
Full
Sep 15
Last Quarter
Sep 24
New

Today's Extremes

State Highs State Lows

Community

WunderPhotos

Upload Photos

1,747,690 photos uploaded!

Nearby

Snow Depth

Station Depth Elevation
Casper Mountain 0 in 7850 ft
Reno Hill 0 in 8500 ft
Sand Lake 0 in 10050 ft
Brooklyn Lake 1 in 10220 ft
North French Creek 0 in 10130 ft

Earthquake Activity

City Distance Mag. Time & Date
No recent earthquake activity has been reported nearby.
Minimum magnitude displayed is 2.5.

Coastal Water Temperatures

Place Temperature
No Stations Reporting

Nearby Weather Stations